sensor_id;sensor_type;location;lat;lon;timestamp;P1;durP1;ratioP1;P2;durP2;ratioP2
74904;SDS011;63465;50.862;6.220;2023-06-22T00:00:49;12.57;;;8.73;;
74904;SDS011;63465;50.862;6.220;2023-06-22T00:03:14;8.43;;;7.50;;
74904;SDS011;63465;50.862;6.220;2023-06-22T00:05:40;9.80;;;7.80;;
74904;SDS011;63465;50.862;6.220;2023-06-22T00:08:05;10.30;;;8.43;;
74904;SDS011;63465;50.862;6.220;2023-06-22T00:10:31;12.20;;;7.80;;
74904;SDS011;63465;50.862;6.220;2023-06-22T00:12:56;11.83;;;7.90;;
74904;SDS011;63465;50.862;6.220;2023-06-22T00:15:21;9.70;;;7.43;;
74904;SDS011;63465;50.862;6.220;2023-06-22T00:17:47;9.20;;;7.80;;
74904;SDS011;63465;50.862;6.220;2023-06-22T00:20:12;9.23;;;7.57;;
74904;SDS011;63465;50.862;6.220;2023-06-22T00:22:39;9.47;;;7.90;;
74904;SDS011;63465;50.862;6.220;2023-06-22T00:25:06;13.00;;;7.80;;
74904;SDS011;63465;50.862;6.220;2023-06-22T00:27:32;10.40;;;7.70;;
74904;SDS011;63465;50.862;6.220;2023-06-22T00:29:57;10.80;;;7.83;;
74904;SDS011;63465;50.862;6.220;2023-06-22T00:32:22;9.33;;;7.40;;
74904;SDS011;63465;50.862;6.220;2023-06-22T00:34:47;10.20;;;8.03;;
74904;SDS011;63465;50.862;6.220;2023-06-22T00:37:13;9.50;;;7.77;;
74904;SDS011;63465;50.862;6.220;2023-06-22T00:39:38;9.80;;;7.50;;
74904;SDS011;63465;50.862;6.220;2023-06-22T00:42:04;12.83;;;7.00;;
74904;SDS011;63465;50.862;6.220;2023-06-22T00:44:29;8.40;;;7.20;;
74904;SDS011;63465;50.862;6.220;2023-06-22T00:46:55;8.63;;;7.53;;
74904;SDS011;63465;50.862;6.220;2023-06-22T00:49:20;11.20;;;8.00;;
74904;SDS011;63465;50.862;6.220;2023-06-22T00:51:46;11.53;;;7.33;;
74904;SDS011;63465;50.862;6.220;2023-06-22T00:54:12;9.77;;;7.60;;
74904;SDS011;63465;50.862;6.220;2023-06-22T00:56:39;10.60;;;7.97;;
74904;SDS011;63465;50.862;6.220;2023-06-22T00:59:09;7.90;;;7.10;;
74904;SDS011;63465;50.862;6.220;2023-06-22T01:01:37;8.97;;;6.90;;
74904;SDS011;63465;50.862;6.220;2023-06-22T01:04:06;9.00;;;7.37;;
74904;SDS011;63465;50.862;6.220;2023-06-22T01:06:33;9.07;;;7.53;;
74904;SDS011;63465;50.862;6.220;2023-06-22T01:09:06;9.30;;;7.00;;
74904;SDS011;63465;50.862;6.220;2023-06-22T01:11:54;8.93;;;6.70;;
74904;SDS011;63465;50.862;6.220;2023-06-22T01:14:24;8.50;;;6.77;;
74904;SDS011;63465;50.862;6.220;2023-06-22T01:16:56;8.33;;;7.13;;
74904;SDS011;63465;50.862;6.220;2023-06-22T01:21:59;8.77;;;7.17;;
74904;SDS011;63465;50.862;6.220;2023-06-22T01:24:27;13.57;;;7.40;;
74904;SDS011;63465;50.862;6.220;2023-06-22T01:27:25;8.63;;;6.93;;
74904;SDS011;63465;50.862;6.220;2023-06-22T01:29:51;9.60;;;7.17;;
74904;SDS011;63465;50.862;6.220;2023-06-22T01:32:26;8.30;;;7.00;;
74904;SDS011;63465;50.862;6.220;2023-06-22T01:34:55;8.30;;;7.00;;
74904;SDS011;63465;50.862;6.220;2023-06-22T01:37:21;10.30;;;7.73;;
74904;SDS011;63465;50.862;6.220;2023-06-22T01:39:47;13.17;;;7.50;;
74904;SDS011;63465;50.862;6.220;2023-06-22T01:42:13;8.47;;;7.43;;
74904;SDS011;63465;50.862;6.220;2023-06-22T01:44:38;9.13;;;6.80;;
74904;SDS011;63465;50.862;6.220;2023-06-22T01:47:04;7.80;;;6.53;;
74904;SDS011;63465;50.862;6.220;2023-06-22T01:49:31;10.40;;;7.70;;
74904;SDS011;63465;50.862;6.220;2023-06-22T01:51:56;8.37;;;6.97;;
74904;SDS011;63465;50.862;6.220;2023-06-22T01:54:22;10.20;;;7.67;;
74904;SDS011;63465;50.862;6.220;2023-06-22T01:56:47;13.10;;;8.13;;
74904;SDS011;63465;50.862;6.220;2023-06-22T01:59:25;9.70;;;7.70;;
74904;SDS011;63465;50.862;6.220;2023-06-22T02:02:15;10.90;;;7.63;;
74904;SDS011;63465;50.862;6.220;2023-06-22T02:04:46;10.67;;;7.50;;
74904;SDS011;63465;50.862;6.220;2023-06-22T02:07:17;12.60;;;7.93;;
74904;SDS011;63465;50.862;6.220;2023-06-22T02:09:45;9.67;;;7.40;;
74904;SDS011;63465;50.862;6.220;2023-06-22T02:12:13;9.73;;;8.70;;
74904;SDS011;63465;50.862;6.220;2023-06-22T02:14:43;8.80;;;7.33;;
74904;SDS011;63465;50.862;6.220;2023-06-22T02:17:11;13.43;;;8.50;;
74904;SDS011;63465;50.862;6.220;2023-06-22T02:19:37;10.47;;;8.40;;
74904;SDS011;63465;50.862;6.220;2023-06-22T02:22:04;9.83;;;8.13;;
74904;SDS011;63465;50.862;6.220;2023-06-22T02:24:30;11.73;;;7.87;;
74904;SDS011;63465;50.862;6.220;2023-06-22T02:27:00;13.40;;;8.60;;
74904;SDS011;63465;50.862;6.220;2023-06-22T02:29:26;12.77;;;8.10;;
74904;SDS011;63465;50.862;6.220;2023-06-22T02:31:52;11.27;;;8.27;;
74904;SDS011;63465;50.862;6.220;2023-06-22T02:34:18;9.03;;;7.97;;
74904;SDS011;63465;50.862;6.220;2023-06-22T02:36:47;11.43;;;8.97;;
74904;SDS011;63465;50.862;6.220;2023-06-22T02:39:23;11.47;;;8.37;;
74904;SDS011;63465;50.862;6.220;2023-06-22T02:41:49;10.83;;;8.13;;
74904;SDS011;63465;50.862;6.220;2023-06-22T02:44:16;14.53;;;8.33;;
74904;SDS011;63465;50.862;6.220;2023-06-22T02:46:42;23.33;;;8.93;;
74904;SDS011;63465;50.862;6.220;2023-06-22T02:49:07;18.70;;;7.70;;
74904;SDS011;63465;50.862;6.220;2023-06-22T02:51:33;11.77;;;8.53;;
74904;SDS011;63465;50.862;6.220;2023-06-22T02:53:59;9.40;;;8.40;;
74904;SDS011;63465;50.862;6.220;2023-06-22T02:56:25;13.63;;;9.17;;
74904;SDS011;63465;50.862;6.220;2023-06-22T02:58:51;22.10;;;11.20;;
74904;SDS011;63465;50.862;6.220;2023-06-22T03:01:16;14.70;;;9.57;;
74904;SDS011;63465;50.862;6.220;2023-06-22T03:03:42;13.50;;;8.87;;
74904;SDS011;63465;50.862;6.220;2023-06-22T03:06:07;12.80;;;8.90;;
74904;SDS011;63465;50.862;6.220;2023-06-22T03:08:33;16.80;;;9.43;;
74904;SDS011;63465;50.862;6.220;2023-06-22T03:10:59;24.53;;;9.33;;
74904;SDS011;63465;50.862;6.220;2023-06-22T03:13:24;11.67;;;9.00;;
74904;SDS011;63465;50.862;6.220;2023-06-22T03:15:49;14.97;;;9.23;;
74904;SDS011;63465;50.862;6.220;2023-06-22T03:18:15;12.70;;;8.80;;
74904;SDS011;63465;50.862;6.220;2023-06-22T03:20:40;13.80;;;9.77;;
74904;SDS011;63465;50.862;6.220;2023-06-22T03:23:06;12.80;;;9.10;;
74904;SDS011;63465;50.862;6.220;2023-06-22T03:25:31;14.97;;;9.67;;
74904;SDS011;63465;50.862;6.220;2023-06-22T03:27:58;13.20;;;9.70;;
74904;SDS011;63465;50.862;6.220;2023-06-22T03:30:23;14.03;;;10.47;;
74904;SDS011;63465;50.862;6.220;2023-06-22T03:32:49;15.30;;;10.30;;
74904;SDS011;63465;50.862;6.220;2023-06-22T03:35:14;19.97;;;11.30;;
74904;SDS011;63465;50.862;6.220;2023-06-22T03:37:39;14.80;;;9.90;;
74904;SDS011;63465;50.862;6.220;2023-06-22T03:40:05;13.70;;;9.20;;
74904;SDS011;63465;50.862;6.220;2023-06-22T03:42:31;17.00;;;10.00;;
74904;SDS011;63465;50.862;6.220;2023-06-22T03:44:56;13.40;;;9.67;;
74904;SDS011;63465;50.862;6.220;2023-06-22T03:47:22;14.23;;;9.90;;
74904;SDS011;63465;50.862;6.220;2023-06-22T03:49:47;15.03;;;9.87;;
74904;SDS011;63465;50.862;6.220;2023-06-22T03:52:12;16.30;;;10.27;;
74904;SDS011;63465;50.862;6.220;2023-06-22T03:54:38;18.50;;;11.70;;
74904;SDS011;63465;50.862;6.220;2023-06-22T03:57:03;15.13;;;9.90;;
74904;SDS011;63465;50.862;6.220;2023-06-22T03:59:29;11.23;;;9.20;;
74904;SDS011;63465;50.862;6.220;2023-06-22T04:01:54;18.27;;;10.47;;
74904;SDS011;63465;50.862;6.220;2023-06-22T04:04:20;13.17;;;8.80;;
74904;SDS011;63465;50.862;6.220;2023-06-22T04:06:45;14.07;;;9.30;;
74904;SDS011;63465;50.862;6.220;2023-06-22T04:09:10;14.33;;;10.77;;
74904;SDS011;63465;50.862;6.220;2023-06-22T04:11:36;13.27;;;9.63;;
74904;SDS011;63465;50.862;6.220;2023-06-22T04:14:01;14.13;;;9.37;;
74904;SDS011;63465;50.862;6.220;2023-06-22T04:16:27;20.73;;;9.60;;
74904;SDS011;63465;50.862;6.220;2023-06-22T04:18:52;15.30;;;10.00;;
74904;SDS011;63465;50.862;6.220;2023-06-22T04:21:18;14.70;;;9.63;;
74904;SDS011;63465;50.862;6.220;2023-06-22T04:23:44;15.90;;;9.30;;
74904;SDS011;63465;50.862;6.220;2023-06-22T04:26:11;13.87;;;9.07;;
74904;SDS011;63465;50.862;6.220;2023-06-22T04:28:36;13.27;;;9.20;;
74904;SDS011;63465;50.862;6.220;2023-06-22T04:31:02;18.60;;;8.97;;
74904;SDS011;63465;50.862;6.220;2023-06-22T04:33:27;16.80;;;8.50;;
74904;SDS011;63465;50.862;6.220;2023-06-22T04:35:54;13.83;;;8.40;;
74904;SDS011;63465;50.862;6.220;2023-06-22T04:38:22;16.30;;;8.57;;
74904;SDS011;63465;50.862;6.220;2023-06-22T04:40:47;15.20;;;8.93;;
74904;SDS011;63465;50.862;6.220;2023-06-22T04:43:13;13.03;;;8.63;;
74904;SDS011;63465;50.862;6.220;2023-06-22T04:45:38;12.70;;;9.20;;
74904;SDS011;63465;50.862;6.220;2023-06-22T04:48:04;20.50;;;10.17;;
74904;SDS011;63465;50.862;6.220;2023-06-22T04:50:30;12.40;;;9.73;;
74904;SDS011;63465;50.862;6.220;2023-06-22T04:52:55;17.20;;;10.27;;
74904;SDS011;63465;50.862;6.220;2023-06-22T04:55:20;15.23;;;10.00;;
74904;SDS011;63465;50.862;6.220;2023-06-22T04:57:46;13.83;;;9.30;;
74904;SDS011;63465;50.862;6.220;2023-06-22T05:00:14;14.83;;;9.60;;
74904;SDS011;63465;50.862;6.220;2023-06-22T05:02:42;16.90;;;9.90;;
74904;SDS011;63465;50.862;6.220;2023-06-22T05:05:09;14.93;;;9.13;;
74904;SDS011;63465;50.862;6.220;2023-06-22T05:07:38;16.50;;;9.37;;
74904;SDS011;63465;50.862;6.220;2023-06-22T05:10:07;14.87;;;11.03;;
74904;SDS011;63465;50.862;6.220;2023-06-22T05:12:33;13.50;;;9.43;;
74904;SDS011;63465;50.862;6.220;2023-06-22T05:14:59;19.63;;;10.83;;
74904;SDS011;63465;50.862;6.220;2023-06-22T05:17:24;12.90;;;10.20;;
74904;SDS011;63465;50.862;6.220;2023-06-22T05:19:50;15.50;;;10.77;;
74904;SDS011;63465;50.862;6.220;2023-06-22T05:22:15;18.10;;;10.40;;
74904;SDS011;63465;50.862;6.220;2023-06-22T05:24:41;15.10;;;10.07;;
74904;SDS011;63465;50.862;6.220;2023-06-22T05:27:07;19.13;;;10.00;;
74904;SDS011;63465;50.862;6.220;2023-06-22T05:29:32;11.33;;;9.63;;
74904;SDS011;63465;50.862;6.220;2023-06-22T05:31:58;13.70;;;9.40;;
74904;SDS011;63465;50.862;6.220;2023-06-22T05:34:23;19.60;;;10.70;;
74904;SDS011;63465;50.862;6.220;2023-06-22T05:36:48;17.23;;;10.43;;
74904;SDS011;63465;50.862;6.220;2023-06-22T05:39:14;15.60;;;9.90;;
74904;SDS011;63465;50.862;6.220;2023-06-22T05:41:40;20.53;;;10.80;;
74904;SDS011;63465;50.862;6.220;2023-06-22T05:44:05;14.40;;;11.03;;
74904;SDS011;63465;50.862;6.220;2023-06-22T05:46:31;17.63;;;10.77;;
74904;SDS011;63465;50.862;6.220;2023-06-22T05:48:56;20.60;;;11.60;;
74904;SDS011;63465;50.862;6.220;2023-06-22T05:51:22;19.50;;;10.00;;
74904;SDS011;63465;50.862;6.220;2023-06-22T05:53:47;17.60;;;11.33;;
74904;SDS011;63465;50.862;6.220;2023-06-22T05:56:15;15.30;;;11.20;;
74904;SDS011;63465;50.862;6.220;2023-06-22T05:58:40;18.63;;;10.43;;
74904;SDS011;63465;50.862;6.220;2023-06-22T06:01:06;14.57;;;11.40;;
74904;SDS011;63465;50.862;6.220;2023-06-22T06:03:31;18.13;;;11.67;;
74904;SDS011;63465;50.862;6.220;2023-06-22T06:05:56;16.43;;;11.60;;
74904;SDS011;63465;50.862;6.220;2023-06-22T06:08:22;18.10;;;11.70;;
74904;SDS011;63465;50.862;6.220;2023-06-22T06:10:47;18.67;;;11.40;;
74904;SDS011;63465;50.862;6.220;2023-06-22T06:13:12;18.37;;;11.60;;
74904;SDS011;63465;50.862;6.220;2023-06-22T06:15:38;13.87;;;11.37;;
74904;SDS011;63465;50.862;6.220;2023-06-22T06:18:03;20.07;;;11.50;;
74904;SDS011;63465;50.862;6.220;2023-06-22T06:20:30;17.17;;;11.67;;
74904;SDS011;63465;50.862;6.220;2023-06-22T06:22:56;16.17;;;11.57;;
74904;SDS011;63465;50.862;6.220;2023-06-22T06:25:21;21.60;;;11.77;;
74904;SDS011;63465;50.862;6.220;2023-06-22T06:27:47;16.13;;;11.27;;
74904;SDS011;63465;50.862;6.220;2023-06-22T06:30:15;22.87;;;12.23;;
74904;SDS011;63465;50.862;6.220;2023-06-22T06:32:42;14.90;;;11.63;;
74904;SDS011;63465;50.862;6.220;2023-06-22T06:35:09;16.90;;;11.10;;
74904;SDS011;63465;50.862;6.220;2023-06-22T06:37:35;16.83;;;11.37;;
74904;SDS011;63465;50.862;6.220;2023-06-22T06:40:06;19.57;;;10.50;;
74904;SDS011;63465;50.862;6.220;2023-06-22T06:42:35;16.43;;;10.80;;
74904;SDS011;63465;50.862;6.220;2023-06-22T06:45:02;19.20;;;12.07;;
74904;SDS011;63465;50.862;6.220;2023-06-22T06:47:28;16.20;;;11.40;;
74904;SDS011;63465;50.862;6.220;2023-06-22T06:49:54;17.00;;;12.20;;
74904;SDS011;63465;50.862;6.220;2023-06-22T06:52:19;18.50;;;12.13;;
74904;SDS011;63465;50.862;6.220;2023-06-22T06:54:45;15.43;;;10.77;;
74904;SDS011;63465;50.862;6.220;2023-06-22T06:57:10;15.00;;;11.50;;
74904;SDS011;63465;50.862;6.220;2023-06-22T06:59:38;19.10;;;12.50;;
74904;SDS011;63465;50.862;6.220;2023-06-22T07:02:04;17.10;;;11.53;;
74904;SDS011;63465;50.862;6.220;2023-06-22T07:04:29;16.13;;;11.60;;
74904;SDS011;63465;50.862;6.220;2023-06-22T07:06:55;21.10;;;10.43;;
74904;SDS011;63465;50.862;6.220;2023-06-22T07:09:20;16.50;;;10.73;;
74904;SDS011;63465;50.862;6.220;2023-06-22T07:11:46;17.80;;;10.60;;
74904;SDS011;63465;50.862;6.220;2023-06-22T07:14:11;18.90;;;10.60;;
74904;SDS011;63465;50.862;6.220;2023-06-22T07:16:36;17.33;;;9.57;;
74904;SDS011;63465;50.862;6.220;2023-06-22T07:19:02;14.50;;;10.03;;
74904;SDS011;63465;50.862;6.220;2023-06-22T07:21:27;14.03;;;10.17;;
74904;SDS011;63465;50.862;6.220;2023-06-22T07:23:52;15.70;;;10.50;;
74904;SDS011;63465;50.862;6.220;2023-06-22T07:26:19;15.03;;;9.63;;
74904;SDS011;63465;50.862;6.220;2023-06-22T07:28:44;13.93;;;10.23;;
74904;SDS011;63465;50.862;6.220;2023-06-22T07:31:09;13.47;;;9.70;;
74904;SDS011;63465;50.862;6.220;2023-06-22T07:33:35;17.93;;;10.27;;
74904;SDS011;63465;50.862;6.220;2023-06-22T07:36:00;16.67;;;10.30;;
74904;SDS011;63465;50.862;6.220;2023-06-22T07:38:26;15.00;;;9.67;;
74904;SDS011;63465;50.862;6.220;2023-06-22T07:40:51;14.10;;;10.40;;
74904;SDS011;63465;50.862;6.220;2023-06-22T07:43:18;16.43;;;10.20;;
74904;SDS011;63465;50.862;6.220;2023-06-22T07:45:48;15.10;;;9.13;;
74904;SDS011;63465;50.862;6.220;2023-06-22T07:48:17;25.50;;;8.90;;
74904;SDS011;63465;50.862;6.220;2023-06-22T07:50:44;16.80;;;10.07;;
74904;SDS011;63465;50.862;6.220;2023-06-22T07:53:10;11.47;;;8.93;;
74904;SDS011;63465;50.862;6.220;2023-06-22T07:55:35;19.47;;;9.70;;
74904;SDS011;63465;50.862;6.220;2023-06-22T07:58:00;11.67;;;9.33;;
74904;SDS011;63465;50.862;6.220;2023-06-22T08:00:26;19.03;;;10.20;;
74904;SDS011;63465;50.862;6.220;2023-06-22T08:02:51;15.50;;;11.07;;
74904;SDS011;63465;50.862;6.220;2023-06-22T08:05:16;16.13;;;10.57;;
74904;SDS011;63465;50.862;6.220;2023-06-22T08:07:42;17.40;;;10.43;;
74904;SDS011;63465;50.862;6.220;2023-06-22T08:10:12;21.10;;;10.03;;
74904;SDS011;63465;50.862;6.220;2023-06-22T08:12:38;20.60;;;9.50;;
74904;SDS011;63465;50.862;6.220;2023-06-22T08:15:04;16.23;;;9.83;;
74904;SDS011;63465;50.862;6.220;2023-06-22T08:17:30;13.27;;;9.90;;
74904;SDS011;63465;50.862;6.220;2023-06-22T08:19:56;20.43;;;10.47;;
74904;SDS011;63465;50.862;6.220;2023-06-22T08:22:21;19.33;;;9.93;;
74904;SDS011;63465;50.862;6.220;2023-06-22T08:24:47;10.87;;;9.77;;
74904;SDS011;63465;50.862;6.220;2023-06-22T08:27:12;14.93;;;8.70;;
74904;SDS011;63465;50.862;6.220;2023-06-22T08:29:38;14.00;;;9.03;;
74904;SDS011;63465;50.862;6.220;2023-06-22T08:32:04;13.80;;;10.07;;
74904;SDS011;63465;50.862;6.220;2023-06-22T08:34:30;14.17;;;9.30;;
74904;SDS011;63465;50.862;6.220;2023-06-22T08:36:55;21.93;;;9.33;;
74904;SDS011;63465;50.862;6.220;2023-06-22T08:39:20;14.53;;;9.40;;
74904;SDS011;63465;50.862;6.220;2023-06-22T08:41:46;15.23;;;11.23;;
74904;SDS011;63465;50.862;6.220;2023-06-22T08:44:12;15.13;;;10.20;;
74904;SDS011;63465;50.862;6.220;2023-06-22T08:46:38;10.50;;;7.90;;
74904;SDS011;63465;50.862;6.220;2023-06-22T08:49:05;12.47;;;9.30;;
74904;SDS011;63465;50.862;6.220;2023-06-22T08:51:31;19.40;;;10.73;;
74904;SDS011;63465;50.862;6.220;2023-06-22T08:53:56;11.23;;;10.13;;
74904;SDS011;63465;50.862;6.220;2023-06-22T08:56:22;14.80;;;10.70;;
74904;SDS011;63465;50.862;6.220;2023-06-22T08:58:47;16.20;;;12.40;;
74904;SDS011;63465;50.862;6.220;2023-06-22T09:01:12;15.87;;;11.23;;
74904;SDS011;63465;50.862;6.220;2023-06-22T09:03:40;21.20;;;10.60;;
74904;SDS011;63465;50.862;6.220;2023-06-22T09:06:05;13.17;;;10.30;;
74904;SDS011;63465;50.862;6.220;2023-06-22T09:08:30;16.33;;;10.60;;
74904;SDS011;63465;50.862;6.220;2023-06-22T09:10:55;12.87;;;10.20;;
74904;SDS011;63465;50.862;6.220;2023-06-22T09:13:21;12.30;;;10.70;;
74904;SDS011;63465;50.862;6.220;2023-06-22T09:15:47;13.30;;;11.30;;
74904;SDS011;63465;50.862;6.220;2023-06-22T09:18:13;17.43;;;11.00;;
74904;SDS011;63465;50.862;6.220;2023-06-22T09:20:39;15.50;;;10.40;;
74904;SDS011;63465;50.862;6.220;2023-06-22T09:23:04;19.33;;;11.00;;
74904;SDS011;63465;50.862;6.220;2023-06-22T09:25:29;14.70;;;9.70;;
74904;SDS011;63465;50.862;6.220;2023-06-22T09:27:55;18.03;;;11.17;;
74904;SDS011;63465;50.862;6.220;2023-06-22T09:30:20;12.40;;;11.10;;
74904;SDS011;63465;50.862;6.220;2023-06-22T09:32:46;16.53;;;12.37;;
74904;SDS011;63465;50.862;6.220;2023-06-22T09:35:11;18.40;;;11.63;;
74904;SDS011;63465;50.862;6.220;2023-06-22T09:37:38;14.40;;;12.67;;
74904;SDS011;63465;50.862;6.220;2023-06-22T09:40:04;16.27;;;13.43;;
74904;SDS011;63465;50.862;6.220;2023-06-22T09:42:35;17.23;;;12.40;;
74904;SDS011;63465;50.862;6.220;2023-06-22T09:45:00;16.80;;;11.57;;
74904;SDS011;63465;50.862;6.220;2023-06-22T09:47:26;17.50;;;12.63;;
74904;SDS011;63465;50.862;6.220;2023-06-22T09:49:52;17.10;;;12.53;;
74904;SDS011;63465;50.862;6.220;2023-06-22T09:52:18;21.63;;;13.70;;
74904;SDS011;63465;50.862;6.220;2023-06-22T09:54:43;17.83;;;12.63;;
74904;SDS011;63465;50.862;6.220;2023-06-22T09:57:08;17.60;;;12.00;;
74904;SDS011;63465;50.862;6.220;2023-06-22T09:59:34;14.03;;;12.57;;
74904;SDS011;63465;50.862;6.220;2023-06-22T10:01:59;19.23;;;13.83;;
74904;SDS011;63465;50.862;6.220;2023-06-22T10:04:24;20.03;;;15.10;;
74904;SDS011;63465;50.862;6.220;2023-06-22T10:06:50;21.43;;;14.90;;
74904;SDS011;63465;50.862;6.220;2023-06-22T10:09:18;21.27;;;15.47;;
74904;SDS011;63465;50.862;6.220;2023-06-22T10:11:44;21.33;;;15.70;;
74904;SDS011;63465;50.862;6.220;2023-06-22T10:14:09;28.77;;;17.70;;
74904;SDS011;63465;50.862;6.220;2023-06-22T10:16:36;25.07;;;18.27;;
74904;SDS011;63465;50.862;6.220;2023-06-22T10:19:01;26.20;;;18.20;;
74904;SDS011;63465;50.862;6.220;2023-06-22T10:21:26;29.70;;;17.70;;
74904;SDS011;63465;50.862;6.220;2023-06-22T10:23:53;24.23;;;17.73;;
74904;SDS011;63465;50.862;6.220;2023-06-22T10:26:19;27.73;;;18.20;;
74904;SDS011;63465;50.862;6.220;2023-06-22T10:28:44;34.87;;;18.80;;
74904;SDS011;63465;50.862;6.220;2023-06-22T10:31:09;29.07;;;17.50;;
74904;SDS011;63465;50.862;6.220;2023-06-22T10:33:35;23.03;;;18.20;;
74904;SDS011;63465;50.862;6.220;2023-06-22T10:36:00;26.60;;;18.77;;
74904;SDS011;63465;50.862;6.220;2023-06-22T10:38:25;29.40;;;18.80;;
74904;SDS011;63465;50.862;6.220;2023-06-22T10:40:51;26.93;;;19.40;;
74904;SDS011;63465;50.862;6.220;2023-06-22T10:43:16;26.53;;;19.50;;
74904;SDS011;63465;50.862;6.220;2023-06-22T10:45:41;32.30;;;19.90;;
74904;SDS011;63465;50.862;6.220;2023-06-22T10:48:06;29.63;;;21.10;;
74904;SDS011;63465;50.862;6.220;2023-06-22T10:50:32;29.17;;;21.67;;
74904;SDS011;63465;50.862;6.220;2023-06-22T10:52:57;29.50;;;19.77;;
74904;SDS011;63465;50.862;6.220;2023-06-22T10:55:22;27.07;;;22.57;;
74904;SDS011;63465;50.862;6.220;2023-06-22T10:57:48;44.70;;;23.80;;
74904;SDS011;63465;50.862;6.220;2023-06-22T11:00:13;32.17;;;23.50;;
74904;SDS011;63465;50.862;6.220;2023-06-22T11:02:40;29.10;;;21.40;;
74904;SDS011;63465;50.862;6.220;2023-06-22T11:05:05;28.00;;;21.13;;
74904;SDS011;63465;50.862;6.220;2023-06-22T11:07:31;35.07;;;22.00;;
74904;SDS011;63465;50.862;6.220;2023-06-22T11:09:57;27.37;;;20.80;;
74904;SDS011;63465;50.862;6.220;2023-06-22T11:12:23;30.10;;;19.47;;
74904;SDS011;63465;50.862;6.220;2023-06-22T11:14:48;26.30;;;19.30;;
74904;SDS011;63465;50.862;6.220;2023-06-22T11:17:16;24.87;;;17.93;;
74904;SDS011;63465;50.862;6.220;2023-06-22T11:19:41;26.13;;;17.00;;
74904;SDS011;63465;50.862;6.220;2023-06-22T11:22:07;25.43;;;16.60;;
74904;SDS011;63465;50.862;6.220;2023-06-22T11:24:32;23.57;;;16.53;;
74904;SDS011;63465;50.862;6.220;2023-06-22T11:26:57;21.63;;;15.80;;
74904;SDS011;63465;50.862;6.220;2023-06-22T11:29:23;23.57;;;15.40;;
74904;SDS011;63465;50.862;6.220;2023-06-22T11:31:48;18.37;;;15.67;;
74904;SDS011;63465;50.862;6.220;2023-06-22T11:34:13;19.97;;;16.17;;
74904;SDS011;63465;50.862;6.220;2023-06-22T11:36:38;22.10;;;16.63;;
74904;SDS011;63465;50.862;6.220;2023-06-22T11:39:05;22.33;;;15.87;;
74904;SDS011;63465;50.862;6.220;2023-06-22T11:41:30;19.10;;;15.13;;
74904;SDS011;63465;50.862;6.220;2023-06-22T11:43:56;20.30;;;14.40;;
74904;SDS011;63465;50.862;6.220;2023-06-22T11:46:21;25.50;;;15.27;;
74904;SDS011;63465;50.862;6.220;2023-06-22T11:48:46;22.27;;;16.63;;
74904;SDS011;63465;50.862;6.220;2023-06-22T11:51:12;20.97;;;15.13;;
74904;SDS011;63465;50.862;6.220;2023-06-22T11:53:37;18.67;;;14.30;;
74904;SDS011;63465;50.862;6.220;2023-06-22T11:56:02;24.17;;;16.07;;
74904;SDS011;63465;50.862;6.220;2023-06-22T11:58:28;19.43;;;13.70;;
74904;SDS011;63465;50.862;6.220;2023-06-22T12:00:53;18.73;;;13.50;;
74904;SDS011;63465;50.862;6.220;2023-06-22T12:03:19;20.40;;;14.10;;
74904;SDS011;63465;50.862;6.220;2023-06-22T12:05:46;18.60;;;14.13;;
74904;SDS011;63465;50.862;6.220;2023-06-22T12:08:12;22.37;;;14.10;;
74904;SDS011;63465;50.862;6.220;2023-06-22T12:10:38;18.97;;;14.07;;
74904;SDS011;63465;50.862;6.220;2023-06-22T12:13:04;21.80;;;14.73;;
74904;SDS011;63465;50.862;6.220;2023-06-22T12:15:29;16.30;;;13.70;;
74904;SDS011;63465;50.862;6.220;2023-06-22T12:17:54;17.90;;;13.53;;
74904;SDS011;63465;50.862;6.220;2023-06-22T12:20:20;15.93;;;13.50;;
74904;SDS011;63465;50.862;6.220;2023-06-22T12:22:45;16.30;;;13.37;;
74904;SDS011;63465;50.862;6.220;2023-06-22T12:25:10;20.03;;;14.43;;
74904;SDS011;63465;50.862;6.220;2023-06-22T12:27:36;20.20;;;13.70;;
74904;SDS011;63465;50.862;6.220;2023-06-22T12:30:02;18.27;;;12.93;;
74904;SDS011;63465;50.862;6.220;2023-06-22T12:32:28;18.30;;;12.90;;
74904;SDS011;63465;50.862;6.220;2023-06-22T12:34:54;15.40;;;11.60;;
74904;SDS011;63465;50.862;6.220;2023-06-22T12:37:20;13.97;;;11.93;;
74904;SDS011;63465;50.862;6.220;2023-06-22T12:39:45;16.40;;;12.93;;
74904;SDS011;63465;50.862;6.220;2023-06-22T12:42:10;20.37;;;12.43;;
74904;SDS011;63465;50.862;6.220;2023-06-22T12:44:39;15.10;;;12.37;;
74904;SDS011;63465;50.862;6.220;2023-06-22T12:47:06;16.60;;;13.70;;
74904;SDS011;63465;50.862;6.220;2023-06-22T12:49:33;16.87;;;13.90;;
74904;SDS011;63465;50.862;6.220;2023-06-22T12:51:59;20.60;;;13.00;;
74904;SDS011;63465;50.862;6.220;2023-06-22T12:54:24;18.73;;;14.50;;
74904;SDS011;63465;50.862;6.220;2023-06-22T12:56:50;17.43;;;14.10;;
74904;SDS011;63465;50.862;6.220;2023-06-22T12:59:15;21.03;;;15.27;;
74904;SDS011;63465;50.862;6.220;2023-06-22T13:01:42;20.97;;;16.00;;
74904;SDS011;63465;50.862;6.220;2023-06-22T13:04:08;17.27;;;14.23;;
74904;SDS011;63465;50.862;6.220;2023-06-22T13:06:36;23.70;;;13.30;;
74904;SDS011;63465;50.862;6.220;2023-06-22T13:09:01;30.47;;;15.87;;
74904;SDS011;63465;50.862;6.220;2023-06-22T13:11:27;24.13;;;15.90;;
74904;SDS011;63465;50.862;6.220;2023-06-22T13:13:52;20.20;;;16.07;;
74904;SDS011;63465;50.862;6.220;2023-06-22T13:16:17;20.77;;;16.53;;
74904;SDS011;63465;50.862;6.220;2023-06-22T13:18:42;23.40;;;17.67;;
74904;SDS011;63465;50.862;6.220;2023-06-22T13:21:08;26.10;;;18.50;;
74904;SDS011;63465;50.862;6.220;2023-06-22T13:23:33;25.93;;;18.80;;
74904;SDS011;63465;50.862;6.220;2023-06-22T13:25:59;26.70;;;19.90;;
74904;SDS011;63465;50.862;6.220;2023-06-22T13:28:25;27.27;;;20.27;;
74904;SDS011;63465;50.862;6.220;2023-06-22T13:30:50;29.17;;;21.40;;
74904;SDS011;63465;50.862;6.220;2023-06-22T13:33:15;28.20;;;19.60;;
74904;SDS011;63465;50.862;6.220;2023-06-22T13:35:41;26.47;;;19.50;;
74904;SDS011;63465;50.862;6.220;2023-06-22T13:38:09;31.00;;;21.27;;
74904;SDS011;63465;50.862;6.220;2023-06-22T13:40:35;34.40;;;22.07;;
74904;SDS011;63465;50.862;6.220;2023-06-22T13:43:01;27.43;;;20.33;;
74904;SDS011;63465;50.862;6.220;2023-06-22T13:45:26;31.70;;;23.30;;
74904;SDS011;63465;50.862;6.220;2023-06-22T13:47:52;32.10;;;21.47;;
74904;SDS011;63465;50.862;6.220;2023-06-22T13:50:17;31.77;;;21.20;;
74904;SDS011;63465;50.862;6.220;2023-06-22T13:52:43;32.17;;;22.53;;
74904;SDS011;63465;50.862;6.220;2023-06-22T13:55:08;34.13;;;22.70;;
74904;SDS011;63465;50.862;6.220;2023-06-22T13:57:34;34.50;;;22.97;;
74904;SDS011;63465;50.862;6.220;2023-06-22T14:00:00;39.73;;;23.13;;
74904;SDS011;63465;50.862;6.220;2023-06-22T14:02:25;29.33;;;22.10;;
74904;SDS011;63465;50.862;6.220;2023-06-22T14:04:52;30.43;;;23.07;;
74904;SDS011;63465;50.862;6.220;2023-06-22T14:07:17;34.40;;;23.03;;
74904;SDS011;63465;50.862;6.220;2023-06-22T14:09:44;33.20;;;24.40;;
74904;SDS011;63465;50.862;6.220;2023-06-22T14:12:10;35.17;;;24.83;;
74904;SDS011;63465;50.862;6.220;2023-06-22T14:14:35;33.47;;;24.77;;
74904;SDS011;63465;50.862;6.220;2023-06-22T14:17:01;36.87;;;25.50;;
74904;SDS011;63465;50.862;6.220;2023-06-22T14:19:26;34.40;;;24.20;;
74904;SDS011;63465;50.862;6.220;2023-06-22T14:21:51;33.10;;;22.43;;
74904;SDS011;63465;50.862;6.220;2023-06-22T14:24:17;34.43;;;24.03;;